createdAt,value
2017-12-26T00:00:56.548Z,5.60
2017-12-26T00:03:24.904Z,5.60
2017-12-26T00:05:53.232Z,5.60
2017-12-26T00:08:21.588Z,5.60
2017-12-26T00:10:49.926Z,5.50
2017-12-26T00:13:18.387Z,5.50
2017-12-26T00:15:46.733Z,5.50
2017-12-26T00:18:15.080Z,5.50
2017-12-26T00:20:43.428Z,5.50
2017-12-26T00:23:11.776Z,5.50
2017-12-26T00:25:40.170Z,5.50
2017-12-26T00:28:08.492Z,5.40
2017-12-26T00:30:36.824Z,5.50
2017-12-26T00:33:05.236Z,5.50
2017-12-26T00:35:33.596Z,5.50
2017-12-26T00:38:01.958Z,5.50
2017-12-26T00:40:30.315Z,5.50
2017-12-26T00:42:58.714Z,5.50
2017-12-26T00:45:27.083Z,5.40
2017-12-26T00:47:55.424Z,5.40
2017-12-26T00:50:23.859Z,5.40
2017-12-26T00:52:52.312Z,5.40
2017-12-26T00:55:20.637Z,5.40
2017-12-26T00:57:48.989Z,5.40
2017-12-26T01:00:17.319Z,5.40
2017-12-26T01:02:46.462Z,5.40
2017-12-26T01:05:14.826Z,5.40
2017-12-26T01:07:43.182Z,5.40
2017-12-26T01:10:12.292Z,5.30
2017-12-26T01:12:41.412Z,5.30
2017-12-26T01:15:09.761Z,5.20
2017-12-26T01:17:38.873Z,5.20
2017-12-26T01:20:07.244Z,5.10
2017-12-26T01:22:36.406Z,5.00
2017-12-26T01:25:04.735Z,5.00
2017-12-26T01:27:33.126Z,4.90
2017-12-26T01:30:01.467Z,5.00
2017-12-26T01:32:30.586Z,4.90
2017-12-26T01:34:58.918Z,4.90
2017-12-26T01:37:27.267Z,4.90
2017-12-26T01:39:55.791Z,4.80
2017-12-26T01:42:24.129Z,4.80
2017-12-26T01:44:52.488Z,4.80
2017-12-26T01:47:20.832Z,4.80
2017-12-26T01:49:49.975Z,4.80
2017-12-26T01:52:18.316Z,4.80
2017-12-26T01:54:46.734Z,4.80
2017-12-26T01:57:15.176Z,4.80
2017-12-26T01:59:44.283Z,4.70
2017-12-26T02:02:12.628Z,4.70
2017-12-26T02:04:40.993Z,4.70
2017-12-26T02:07:09.547Z,4.70
2017-12-26T02:09:37.905Z,4.70
2017-12-26T02:12:06.246Z,4.70
2017-12-26T02:14:34.614Z,4.70
2017-12-26T02:17:02.959Z,4.60
2017-12-26T02:19:31.287Z,4.70
2017-12-26T02:21:59.644Z,4.70
2017-12-26T02:24:27.979Z,4.70
2017-12-26T02:26:56.340Z,4.70
2017-12-26T02:29:24.872Z,4.70
2017-12-26T02:31:53.203Z,4.60
2017-12-26T02:34:22.321Z,4.60
2017-12-26T02:36:50.660Z,4.60
2017-12-26T02:39:19.091Z,4.50
2017-12-26T02:41:47.424Z,4.50
2017-12-26T02:44:15.777Z,4.50
2017-12-26T02:46:44.200Z,4.40
2017-12-26T02:49:12.515Z,4.40
2017-12-26T02:51:40.871Z,4.40
2017-12-26T02:54:09.217Z,4.30
2017-12-26T02:56:37.583Z,4.30
2017-12-26T02:59:05.935Z,4.30
2017-12-26T03:01:34.277Z,4.30
2017-12-26T03:04:02.658Z,4.30
2017-12-26T03:06:31.067Z,4.20
2017-12-26T03:08:59.410Z,4.20
2017-12-26T03:11:27.776Z,4.10
2017-12-26T03:13:56.139Z,4.10
2017-12-26T03:16:24.494Z,4.10
2017-12-26T03:18:52.847Z,4.10
2017-12-26T03:21:21.206Z,4.10
2017-12-26T03:23:50.312Z,4.10
2017-12-26T03:26:18.652Z,4.20
2017-12-26T03:28:47.021Z,4.20
2017-12-26T03:31:15.385Z,4.20
2017-12-26T03:33:43.777Z,4.20
2017-12-26T03:36:12.113Z,4.20
2017-12-26T03:38:40.458Z,4.30
2017-12-26T03:41:08.814Z,4.30
2017-12-26T03:43:37.140Z,4.30
2017-12-26T03:46:05.495Z,4.30
2017-12-26T03:48:34.613Z,4.30
2017-12-26T03:51:02.999Z,4.30
2017-12-26T03:53:31.380Z,4.40
2017-12-26T03:55:59.759Z,4.40
2017-12-26T03:58:28.250Z,4.40
2017-12-26T04:00:57.165Z,4.50
2017-12-26T04:03:25.486Z,4.50
2017-12-26T04:05:54.605Z,4.50
2017-12-26T04:08:22.942Z,4.50
2017-12-26T04:10:51.380Z,4.50
2017-12-26T04:13:19.782Z,4.50
2017-12-26T04:15:48.236Z,4.50
2017-12-26T04:18:16.639Z,4.50
2017-12-26T04:20:44.982Z,4.40
2017-12-26T04:23:13.346Z,4.40
2017-12-26T04:25:42.461Z,4.30
2017-12-26T04:28:10.864Z,4.30
2017-12-26T04:30:39.325Z,4.20
2017-12-26T04:33:08.212Z,4.30
2017-12-26T04:35:36.557Z,4.20
2017-12-26T04:38:04.991Z,4.30
2017-12-26T04:40:33.372Z,4.40
2017-12-26T04:43:01.756Z,4.40
2017-12-26T04:45:30.095Z,4.50
2017-12-26T04:47:58.447Z,4.60
2017-12-26T04:50:26.884Z,4.60
2017-12-26T04:52:55.249Z,4.70
2017-12-26T04:55:23.603Z,4.70
2017-12-26T04:57:52.713Z,4.80
2017-12-26T05:00:21.834Z,4.90
2017-12-26T05:02:50.212Z,4.90
2017-12-26T05:05:18.733Z,4.90
2017-12-26T05:07:47.069Z,5.00
2017-12-26T05:10:15.448Z,5.10
2017-12-26T05:12:43.790Z,5.20
2017-12-26T05:15:12.886Z,5.30
2017-12-26T05:17:41.237Z,5.20
2017-12-26T05:20:09.682Z,5.30
2017-12-26T05:22:38.072Z,5.30
2017-12-26T05:25:06.390Z,5.40
2017-12-26T05:27:34.781Z,5.50
2017-12-26T05:30:03.919Z,5.80
2017-12-26T05:32:32.368Z,5.70
2017-12-26T05:35:01.531Z,5.90
2017-12-26T05:37:29.935Z,5.90
2017-12-26T05:39:59.030Z,6.00
2017-12-26T05:42:27.441Z,6.00
2017-12-26T05:44:55.784Z,6.00
2017-12-26T05:47:24.164Z,6.00
2017-12-26T05:49:53.279Z,6.20
2017-12-26T05:52:21.674Z,6.10
2017-12-26T05:54:50.040Z,6.20
2017-12-26T05:57:19.131Z,6.20
2017-12-26T05:59:48.267Z,6.30
2017-12-26T06:02:16.683Z,6.20
2017-12-26T06:04:45.080Z,6.20
2017-12-26T06:07:13.429Z,6.20
2017-12-26T06:09:41.881Z,6.20
2017-12-26T06:12:10.220Z,6.10
2017-12-26T06:14:39.321Z,6.00
2017-12-26T06:17:08.468Z,6.00
2017-12-26T06:19:36.967Z,6.00
2017-12-26T06:22:05.303Z,5.90
2017-12-26T06:24:33.656Z,5.90
2017-12-26T06:27:02.778Z,5.90
2017-12-26T06:29:31.140Z,5.80
2017-12-26T06:31:59.504Z,5.80
2017-12-26T06:34:27.894Z,5.80
2017-12-26T06:36:57.015Z,5.70
2017-12-26T06:39:25.371Z,5.70
2017-12-26T06:41:54.494Z,5.80
2017-12-26T06:44:22.859Z,5.70
2017-12-26T06:46:51.271Z,5.70
2017-12-26T06:49:19.646Z,5.70
2017-12-26T06:51:47.983Z,5.70
2017-12-26T06:54:17.231Z,5.60
2017-12-26T06:56:45.600Z,5.60
2017-12-26T06:59:13.928Z,5.60
2017-12-26T07:01:42.260Z,5.60
2017-12-26T07:04:10.644Z,5.70
2017-12-26T07:06:39.091Z,5.70
2017-12-26T07:09:07.470Z,5.70
2017-12-26T07:11:35.842Z,5.70
2017-12-26T07:14:04.205Z,5.80
2017-12-26T07:16:33.423Z,5.70
2017-12-26T07:19:01.801Z,5.70
2017-12-26T07:21:36.556Z,5.80
2017-12-26T07:24:04.987Z,5.70
2017-12-26T07:26:33.317Z,5.80
2017-12-26T07:29:01.669Z,5.90
2017-12-26T07:31:30.027Z,6.00
2017-12-26T07:33:58.450Z,6.10
2017-12-26T07:36:26.836Z,6.10
2017-12-26T07:38:55.419Z,6.20
2017-12-26T07:41:23.750Z,6.30
2017-12-26T07:43:52.087Z,6.30
2017-12-26T07:46:20.628Z,6.40
2017-12-26T07:48:48.981Z,6.40
2017-12-26T07:51:17.336Z,6.50
2017-12-26T07:53:45.671Z,6.70
2017-12-26T07:56:14.163Z,6.80
2017-12-26T07:58:42.501Z,6.70
2017-12-26T08:01:10.844Z,6.70
2017-12-26T08:03:39.192Z,6.80
2017-12-26T08:06:07.573Z,6.90
2017-12-26T08:08:36.031Z,7.00
2017-12-26T08:11:05.122Z,7.10
2017-12-26T08:13:34.324Z,7.20
2017-12-26T08:16:03.509Z,7.20
2017-12-26T08:18:32.611Z,7.20
2017-12-26T08:21:00.934Z,7.30
2017-12-26T08:23:30.067Z,7.40
2017-12-26T08:25:58.998Z,7.50
2017-12-26T08:28:27.415Z,7.60
2017-12-26T08:30:55.765Z,7.70
2017-12-26T08:33:24.151Z,7.70
2017-12-26T08:35:52.478Z,7.80
2017-12-26T08:38:20.806Z,7.80
2017-12-26T08:40:49.405Z,7.80
2017-12-26T08:43:17.786Z,7.90
2017-12-26T08:45:46.088Z,7.90
2017-12-26T08:48:14.419Z,7.90
2017-12-26T08:50:42.798Z,7.90
2017-12-26T08:53:11.619Z,7.90
2017-12-26T08:55:39.972Z,7.90
2017-12-26T08:58:08.352Z,7.90
2017-12-26T09:00:36.689Z,7.90
2017-12-26T09:03:05.031Z,7.90
2017-12-26T09:05:33.380Z,8.00
2017-12-26T09:08:01.734Z,7.90
2017-12-26T09:10:31.660Z,7.90
2017-12-26T09:13:00.018Z,7.90
2017-12-26T09:15:28.357Z,7.90
2017-12-26T09:17:56.713Z,7.90
2017-12-26T14:12:47.527Z,6.90
2017-12-26T14:15:15.863Z,6.90
2017-12-26T14:17:44.219Z,6.90
2017-12-26T14:20:12.754Z,6.90
2017-12-26T14:22:41.099Z,6.90
2017-12-26T14:25:09.441Z,6.90
2017-12-26T14:27:37.789Z,6.80
2017-12-26T14:30:06.130Z,6.80
2017-12-26T14:32:35.083Z,6.80
2017-12-26T14:35:03.440Z,6.80
2017-12-26T14:37:32.649Z,6.80
2017-12-26T14:40:01.310Z,6.80
2017-12-26T14:42:29.731Z,6.80
2017-12-26T14:44:58.123Z,6.80
2017-12-26T14:47:27.019Z,6.80
2017-12-26T14:49:55.352Z,6.80
2017-12-26T14:52:24.444Z,6.70
2017-12-26T14:54:53.567Z,6.70
2017-12-26T14:57:22.767Z,6.70
2017-12-26T14:59:51.182Z,6.60
2017-12-26T15:02:19.503Z,6.60
2017-12-26T15:04:48.613Z,6.50
2017-12-26T15:07:17.804Z,6.50
2017-12-26T15:09:47.559Z,6.50
2017-12-26T15:12:16.913Z,6.50
2017-12-26T15:14:45.714Z,6.50
2017-12-26T15:17:14.752Z,6.40
2017-12-26T15:19:43.531Z,6.40
2017-12-26T15:22:12.066Z,6.40
2017-12-26T15:24:40.515Z,6.40
2017-12-26T15:27:08.986Z,6.40
2017-12-26T15:29:38.015Z,6.40
2017-12-26T15:32:06.400Z,6.40
2017-12-26T15:34:36.714Z,6.40
2017-12-26T15:37:05.151Z,6.40
2017-12-26T15:39:33.597Z,6.40
2017-12-26T15:42:03.133Z,6.30
2017-12-26T15:44:31.980Z,6.30
2017-12-26T15:47:00.661Z,6.30
2017-12-26T15:49:29.031Z,6.30
2017-12-26T15:51:57.357Z,6.30
2017-12-26T15:54:25.701Z,6.30
2017-12-26T15:56:54.795Z,6.30
2017-12-26T15:59:24.130Z,6.30
2017-12-26T16:01:52.463Z,6.30
2017-12-26T16:04:20.816Z,6.40
2017-12-26T16:06:49.174Z,6.30
2017-12-26T16:09:18.384Z,6.30
2017-12-26T16:11:48.258Z,6.30
2017-12-26T16:14:16.595Z,6.30
2017-12-26T16:16:44.929Z,6.30
2017-12-26T16:19:13.335Z,6.20
2017-12-26T16:21:42.521Z,6.20
2017-12-26T16:24:11.554Z,6.20
2017-12-26T16:26:40.057Z,6.30
2017-12-26T16:29:08.809Z,6.30
2017-12-26T16:31:37.184Z,6.20
2017-12-26T16:34:06.351Z,6.20
2017-12-26T16:36:35.462Z,6.20
2017-12-26T16:39:05.450Z,6.20
2017-12-26T16:41:34.574Z,6.20
2017-12-26T16:44:03.749Z,6.20
2017-12-26T16:46:32.210Z,6.20
2017-12-26T16:49:00.891Z,6.20
2017-12-26T16:51:30.379Z,6.20
2017-12-26T16:53:58.837Z,6.10
2017-12-26T16:56:27.419Z,6.20
2017-12-26T16:58:56.641Z,6.10
2017-12-26T17:01:25.676Z,6.10
2017-12-26T17:03:54.763Z,6.00
2017-12-26T17:06:24.013Z,6.00
2017-12-26T17:08:52.368Z,6.00
2017-12-26T17:11:20.866Z,6.00
2017-12-26T17:13:49.238Z,6.00
2017-12-26T17:16:17.573Z,6.10
2017-12-26T17:18:45.935Z,6.10
2017-12-26T17:21:14.734Z,6.00
2017-12-26T17:23:43.057Z,6.10
2017-12-26T17:26:11.465Z,6.00
2017-12-26T17:28:40.237Z,6.10
2017-12-26T17:31:08.912Z,6.10
2017-12-26T17:33:37.251Z,6.00
2017-12-26T17:36:05.584Z,6.00
2017-12-26T17:38:33.953Z,6.00
2017-12-26T17:41:02.289Z,6.00
2017-12-26T17:43:30.647Z,6.00
2017-12-26T17:45:59.152Z,6.00
2017-12-26T17:48:27.477Z,5.90
2017-12-26T17:50:55.830Z,5.90
2017-12-26T17:53:24.221Z,5.90
2017-12-26T17:55:52.585Z,5.90
2017-12-26T17:58:20.999Z,5.90
2017-12-26T18:00:49.315Z,5.90
2017-12-26T18:03:17.688Z,5.90
2017-12-26T18:05:46.016Z,5.90
2017-12-26T18:08:14.373Z,5.90
2017-12-26T18:10:42.697Z,5.90
2017-12-26T18:13:11.077Z,5.90
2017-12-26T18:15:39.408Z,6.00
2017-12-26T18:18:08.516Z,5.80
2017-12-26T18:20:37.610Z,5.90
2017-12-26T18:23:05.955Z,5.90
2017-12-26T18:25:34.380Z,5.80
2017-12-26T18:28:02.727Z,5.80
2017-12-26T18:30:31.142Z,5.80
2017-12-26T18:32:59.495Z,5.90
2017-12-26T18:35:28.905Z,6.00
2017-12-26T18:37:57.297Z,6.00
2017-12-26T18:40:26.414Z,6.00
2017-12-26T18:42:55.427Z,6.00
2017-12-26T18:45:24.349Z,6.00
2017-12-26T18:47:52.725Z,6.10
2017-12-26T18:50:21.048Z,6.10
2017-12-26T18:52:49.740Z,6.10
2017-12-26T18:55:19.254Z,6.10
2017-12-26T18:57:47.671Z,6.10
2017-12-26T19:00:16.015Z,6.20
2017-12-26T19:02:44.350Z,6.10
2017-12-26T19:05:13.457Z,6.10
2017-12-26T19:07:42.060Z,6.10
2017-12-26T19:10:10.380Z,6.10
2017-12-26T19:12:38.709Z,6.10
2017-12-26T19:15:07.708Z,6.10
2017-12-26T19:17:36.708Z,6.10
2017-12-26T19:20:05.541Z,6.10
2017-12-26T19:22:34.626Z,6.20
2017-12-26T19:25:03.433Z,6.10
2017-12-26T19:27:32.517Z,6.10
2017-12-26T19:30:00.839Z,6.20
2017-12-26T19:32:29.324Z,6.20
2017-12-26T19:34:57.820Z,6.20
2017-12-26T19:37:26.152Z,6.20
2017-12-26T19:39:54.485Z,6.10
2017-12-26T19:42:22.807Z,6.10
2017-12-26T19:44:51.145Z,6.10
2017-12-26T19:47:19.472Z,6.00
2017-12-26T19:49:48.590Z,6.00
2017-12-26T19:52:16.960Z,5.90
2017-12-26T19:54:45.320Z,5.90
2017-12-26T19:57:13.660Z,5.90
2017-12-26T19:59:42.210Z,5.90
2017-12-26T20:02:10.600Z,5.90
2017-12-26T20:04:38.936Z,5.80
2017-12-26T20:07:07.256Z,5.80
2017-12-26T20:09:35.606Z,5.80
2017-12-26T20:12:03.939Z,5.80
2017-12-26T20:14:32.276Z,5.80
2017-12-26T20:17:00.616Z,5.70
2017-12-26T20:19:28.960Z,5.70
2017-12-26T20:21:57.762Z,5.70
2017-12-26T20:24:26.945Z,5.50
2017-12-26T20:26:55.709Z,5.50
2017-12-26T20:29:25.033Z,5.60
2017-12-26T20:31:54.165Z,5.60
2017-12-26T20:34:22.611Z,5.60
2017-12-26T20:36:51.474Z,5.50
2017-12-26T20:39:20.903Z,5.50
2017-12-26T20:41:49.255Z,5.40
2017-12-26T20:44:19.975Z,5.40
2017-12-26T20:46:48.632Z,5.40
2017-12-26T20:49:17.513Z,5.40
2017-12-26T20:51:47.008Z,5.30
2017-12-26T20:54:16.446Z,5.20
2017-12-26T20:56:45.277Z,5.20
2017-12-26T20:59:13.755Z,5.20
2017-12-26T21:01:42.152Z,5.20
2017-12-26T21:04:11.355Z,5.10
2017-12-26T21:06:39.837Z,5.00
2017-12-26T21:09:08.283Z,5.00
2017-12-26T21:11:37.542Z,4.90
2017-12-26T21:14:06.302Z,4.90
2017-12-26T21:16:35.853Z,5.00
2017-12-26T21:19:04.731Z,5.00
2017-12-26T21:21:34.127Z,4.90
2017-12-26T21:24:03.282Z,4.90
2017-12-26T21:26:31.831Z,4.90
2017-12-26T21:29:01.322Z,4.80
2017-12-26T21:31:29.859Z,4.80
2017-12-26T21:33:58.486Z,4.70
2017-12-26T21:36:26.853Z,4.60
2017-12-26T21:38:55.423Z,4.60
2017-12-26T21:41:23.727Z,4.60
2017-12-26T21:43:52.264Z,4.60
2017-12-26T21:46:21.044Z,4.50
2017-12-26T21:48:49.455Z,4.40
2017-12-26T21:51:17.798Z,4.20
2017-12-26T21:53:46.147Z,4.10
2017-12-26T21:56:14.535Z,4.10
2017-12-26T21:58:42.892Z,4.10
2017-12-26T22:01:11.242Z,4.10
2017-12-26T22:03:39.729Z,4.20
2017-12-26T22:06:08.085Z,4.20
2017-12-26T22:08:37.182Z,4.30
2017-12-26T22:11:05.532Z,4.20
2017-12-26T22:13:33.882Z,4.20
2017-12-26T22:16:02.250Z,4.20
2017-12-26T22:18:30.668Z,4.20
2017-12-26T22:20:58.991Z,4.10
2017-12-26T22:23:27.351Z,4.10
2017-12-26T22:25:55.849Z,4.10
2017-12-26T22:28:24.185Z,4.00
2017-12-26T22:30:53.466Z,4.10
2017-12-26T22:33:21.894Z,4.10
2017-12-26T22:35:50.222Z,4.10
2017-12-26T22:38:18.670Z,4.10
2017-12-26T22:40:47.077Z,4.10
2017-12-26T22:43:15.442Z,4.10
2017-12-26T22:45:44.101Z,4.10
2017-12-26T22:48:12.700Z,4.10
2017-12-26T22:50:41.026Z,4.10
2017-12-26T22:53:09.546Z,4.10
2017-12-26T22:55:37.880Z,4.10
2017-12-26T22:58:06.244Z,4.20
2017-12-26T23:00:34.621Z,4.20
2017-12-26T23:03:02.950Z,4.20
2017-12-26T23:05:32.094Z,4.30
2017-12-26T23:08:00.424Z,4.30
2017-12-26T23:10:29.536Z,4.30
2017-12-26T23:12:57.972Z,4.30
2017-12-26T23:15:31.945Z,4.30
2017-12-26T23:18:05.938Z,4.30
2017-12-26T23:20:40.662Z,4.20
2017-12-26T23:23:14.778Z,4.20
2017-12-26T23:25:48.885Z,4.20
2017-12-26T23:28:22.973Z,4.20
2017-12-26T23:30:57.123Z,4.10
2017-12-26T23:33:31.021Z,4.20
2017-12-26T23:36:05.046Z,4.20
2017-12-26T23:38:39.113Z,4.20
2017-12-26T23:41:13.192Z,4.20
2017-12-26T23:43:47.327Z,4.30
2017-12-26T23:46:21.308Z,4.20
2017-12-26T23:48:55.399Z,4.20
2017-12-26T23:51:30.198Z,4.20
2017-12-26T23:54:04.228Z,4.20
2017-12-26T23:56:39.162Z,4.10
2017-12-26T23:59:14.116Z,4.10
